createdAt,value
2018-09-20T00:02:18.924Z,90.52
2018-09-20T00:04:47.913Z,90.12
2018-09-20T00:07:17.177Z,89.71
2018-09-20T00:09:46.512Z,90.05
2018-09-20T00:12:15.800Z,88.82
2018-09-20T00:14:44.720Z,89.26
2018-09-20T00:17:13.628Z,89.70
2018-09-20T00:19:42.514Z,88.99
2018-09-20T00:22:11.356Z,86.49
2018-09-20T00:24:40.346Z,86.27
2018-09-20T00:27:09.510Z,88.04
2018-09-20T00:29:38.383Z,86.41
2018-09-20T00:32:07.522Z,85.91
2018-09-20T00:34:36.452Z,85.37
2018-09-20T00:37:05.396Z,86.60
2018-09-20T00:39:34.236Z,85.30
2018-09-20T00:42:03.384Z,86.01
2018-09-20T00:44:32.690Z,87.64
2018-09-20T00:47:02.151Z,87.72
2018-09-20T00:49:31.189Z,88.32
2018-09-20T00:52:00.058Z,88.38
2018-09-20T00:54:28.903Z,85.90
2018-09-20T00:56:57.865Z,87.90
2018-09-20T00:59:26.770Z,89.36
2018-09-20T01:01:55.735Z,89.34
2018-09-20T01:04:24.701Z,89.65
2018-09-20T01:06:53.684Z,89.47
2018-09-20T01:09:22.615Z,90.04
2018-09-20T01:11:51.592Z,88.88
2018-09-20T01:14:20.485Z,89.07
2018-09-20T01:16:49.464Z,88.55
2018-09-20T01:19:18.329Z,88.80
2018-09-20T01:21:47.180Z,89.27
2018-09-20T01:24:16.156Z,89.70
2018-09-20T01:26:45.076Z,89.22
2018-09-20T01:29:13.976Z,87.17
2018-09-20T01:31:42.821Z,88.34
2018-09-20T01:34:11.749Z,87.83
2018-09-20T01:36:41.024Z,86.74
2018-09-20T01:39:13.652Z,88.81
2018-09-20T01:41:42.628Z,86.88
2018-09-20T01:44:12.209Z,87.20
2018-09-20T01:46:41.152Z,87.33
2018-09-20T01:49:10.583Z,87.04
2018-09-20T01:51:39.768Z,86.91
2018-09-20T01:54:09.087Z,88.64
2018-09-20T01:56:37.967Z,89.14
2018-09-20T01:59:06.823Z,90.85
2018-09-20T02:01:35.788Z,91.38
2018-09-20T02:04:04.663Z,91.40
2018-09-20T02:06:34.056Z,92.52
2018-09-20T02:09:03.056Z,92.20
2018-09-20T02:11:32.032Z,90.48
2018-09-20T02:14:00.936Z,89.82
2018-09-20T02:16:30.013Z,91.19
2018-09-20T02:18:59.208Z,92.21
2018-09-20T02:21:28.176Z,92.83
2018-09-20T02:23:57.106Z,92.68
2018-09-20T02:26:26.034Z,92.72
2018-09-20T02:28:55.021Z,93.62
2018-09-20T02:31:24.068Z,92.82
2018-09-20T02:33:53.178Z,93.56
2018-09-20T02:36:22.063Z,91.69
2018-09-20T02:38:51.076Z,93.36
2018-09-20T02:41:20.368Z,95.58
2018-09-20T02:43:49.917Z,99.34
2018-09-20T02:46:18.872Z,100.00
2018-09-20T02:48:47.916Z,100.00
2018-09-20T02:51:16.947Z,100.00
2018-09-20T02:53:45.896Z,100.00
2018-09-20T02:56:14.743Z,100.00
2018-09-20T02:58:43.848Z,100.00
2018-09-20T03:01:12.848Z,100.00
2018-09-20T03:03:41.789Z,100.00
2018-09-20T03:06:10.627Z,100.00
2018-09-20T03:08:39.477Z,100.00
2018-09-20T03:11:08.528Z,100.00
2018-09-20T03:13:37.509Z,100.00
2018-09-20T03:16:06.520Z,100.00
2018-09-20T03:18:35.512Z,100.00
2018-09-20T03:21:04.376Z,100.00
2018-09-20T03:23:33.413Z,100.00
2018-09-20T03:26:02.369Z,100.00
2018-09-20T03:28:31.295Z,100.00
2018-09-20T03:31:00.776Z,100.00
2018-09-20T03:33:29.812Z,100.00
2018-09-20T03:35:58.683Z,100.00
2018-09-20T03:38:27.612Z,100.00
2018-09-20T03:40:56.627Z,100.00
2018-09-20T03:43:25.924Z,100.00
2018-09-20T03:45:54.952Z,100.00
2018-09-20T03:48:23.836Z,100.00
2018-09-20T03:50:52.665Z,100.00
2018-09-20T03:53:21.616Z,100.00
2018-09-20T03:55:50.563Z,100.00
2018-09-20T03:58:19.461Z,100.00
2018-09-20T04:00:48.370Z,100.00
2018-09-20T04:03:17.336Z,100.00
2018-09-20T04:05:46.584Z,100.00
2018-09-20T04:08:15.586Z,100.00
2018-09-20T04:10:44.522Z,100.00
2018-09-20T04:13:13.740Z,100.00
2018-09-20T04:15:42.821Z,100.00
2018-09-20T04:18:11.806Z,100.00
2018-09-20T04:20:41.102Z,100.00
2018-09-20T04:23:10.412Z,100.00
2018-09-20T04:25:39.438Z,100.00
2018-09-20T04:28:08.431Z,100.00
2018-09-20T04:30:37.639Z,100.00
2018-09-20T04:33:06.610Z,100.00
2018-09-20T04:35:35.440Z,100.00
2018-09-20T04:38:04.280Z,100.00
2018-09-20T04:40:33.332Z,100.00
2018-09-20T04:43:02.243Z,100.00
2018-09-20T04:45:31.083Z,100.00
2018-09-20T04:48:00.476Z,100.00
2018-09-20T04:50:30.160Z,100.00
2018-09-20T04:52:59.112Z,100.00
2018-09-20T04:55:28.492Z,100.00
2018-09-20T04:57:57.950Z,100.00
2018-09-20T05:00:27.205Z,100.00
2018-09-20T05:02:56.228Z,100.00
2018-09-20T05:05:25.152Z,100.00
2018-09-20T05:07:53.995Z,100.00
2018-09-20T05:10:22.997Z,100.00
2018-09-20T05:12:52.144Z,100.00
2018-09-20T05:15:21.492Z,100.00
2018-09-20T05:17:50.436Z,100.00
2018-09-20T05:20:19.511Z,100.00
2018-09-20T05:22:48.520Z,100.00
2018-09-20T05:25:17.443Z,100.00
2018-09-20T05:27:46.404Z,100.00
2018-09-20T05:30:15.451Z,97.44
2018-09-20T05:32:45.668Z,96.03
2018-09-20T05:35:15.480Z,96.22
2018-09-20T05:37:44.803Z,95.45
2018-09-20T05:40:14.174Z,94.45
2018-09-20T05:42:43.458Z,93.26
2018-09-20T05:45:12.688Z,91.26
2018-09-20T05:47:41.948Z,91.36
2018-09-20T05:50:10.825Z,91.57
2018-09-20T05:52:39.749Z,90.94
2018-09-20T05:55:09.017Z,91.31
2018-09-20T05:57:38.218Z,90.02
2018-09-20T06:00:07.772Z,90.08
2018-09-20T06:02:36.807Z,89.71
2018-09-20T06:05:05.997Z,88.19
2018-09-20T06:07:35.044Z,88.46
2018-09-20T06:10:04.272Z,89.21
2018-09-20T06:12:33.175Z,89.27
2018-09-20T06:15:02.172Z,90.06
2018-09-20T06:17:31.004Z,87.67
2018-09-20T06:19:59.851Z,89.15
2018-09-20T06:22:28.718Z,89.93
2018-09-20T06:24:57.625Z,89.41
2018-09-20T06:27:26.573Z,90.75
2018-09-20T06:29:55.496Z,90.15
2018-09-20T06:32:24.570Z,91.28
2018-09-20T06:34:53.761Z,89.29
2018-09-20T06:37:22.660Z,87.52
2018-09-20T06:39:51.896Z,87.23
2018-09-20T06:42:21.193Z,87.54
2018-09-20T06:44:50.493Z,87.00
2018-09-20T06:47:19.742Z,85.57
2018-09-20T06:49:48.760Z,85.77
2018-09-20T06:52:17.680Z,86.36
2018-09-20T06:54:46.585Z,85.79
2018-09-20T06:57:15.840Z,85.44
2018-09-20T06:59:44.804Z,85.18
2018-09-20T07:02:13.857Z,84.73
2018-09-20T07:04:42.897Z,81.17
2018-09-20T07:07:11.799Z,82.01
2018-09-20T07:09:40.999Z,81.61
2018-09-20T07:12:09.964Z,80.13
2018-09-20T07:14:38.905Z,80.73
2018-09-20T07:17:07.902Z,81.53
2018-09-20T07:19:36.869Z,82.15
2018-09-20T07:22:05.817Z,82.02
2018-09-20T07:24:34.872Z,82.18
2018-09-20T07:27:03.806Z,82.24
2018-09-20T07:29:32.742Z,82.50
2018-09-20T07:32:01.989Z,84.01
2018-09-20T07:34:31.423Z,84.12
2018-09-20T07:37:00.781Z,84.90
2018-09-20T07:39:29.728Z,82.72
2018-09-20T07:41:58.631Z,83.28
2018-09-20T07:44:27.705Z,81.79
2018-09-20T07:46:56.635Z,82.68
2018-09-20T07:49:25.547Z,80.40
2018-09-20T07:51:54.445Z,78.84
2018-09-20T07:54:23.400Z,75.69
2018-09-20T07:56:52.501Z,77.10
2018-09-20T07:59:21.735Z,76.11
2018-09-20T08:01:50.741Z,78.62
2018-09-20T08:04:19.970Z,78.56
2018-09-20T08:06:49.012Z,77.74
2018-09-20T08:09:18.047Z,77.50
2018-09-20T08:11:46.991Z,76.42
2018-09-20T08:14:16.243Z,78.83
2018-09-20T08:16:45.468Z,78.47
2018-09-20T08:19:14.399Z,78.84
2018-09-20T08:21:43.535Z,78.87
2018-09-20T08:24:12.493Z,79.64
2018-09-20T08:26:41.872Z,77.49
2018-09-20T08:29:10.807Z,79.58
2018-09-20T08:31:39.788Z,76.99
2018-09-20T08:34:08.979Z,76.64
2018-09-20T08:36:37.992Z,76.27
2018-09-20T08:39:09.644Z,77.33
2018-09-20T08:41:38.925Z,75.99
2018-09-20T08:44:08.329Z,75.26
2018-09-20T08:46:37.600Z,78.44
2018-09-20T08:49:06.662Z,77.72
2018-09-20T08:51:35.965Z,78.07
2018-09-20T08:54:04.956Z,78.63
2018-09-20T08:56:33.931Z,79.05
2018-09-20T08:59:02.877Z,76.33
2018-09-20T09:01:31.712Z,76.42
2018-09-20T09:04:00.710Z,77.72
2018-09-20T09:06:29.596Z,77.67
2018-09-20T09:08:58.847Z,77.19
2018-09-20T09:11:27.739Z,76.14
2018-09-20T09:13:56.737Z,76.54
2018-09-20T09:16:25.764Z,77.69
2018-09-20T09:18:55.045Z,78.00
2018-09-20T09:21:23.956Z,78.16
2018-09-20T09:23:52.904Z,76.26
2018-09-20T09:26:22.279Z,75.96
2018-09-20T09:28:51.212Z,76.16
2018-09-20T09:31:20.127Z,78.44
2018-09-20T09:33:49.040Z,78.29
2018-09-20T09:36:18.027Z,79.87
2018-09-20T09:38:46.936Z,79.18
2018-09-20T09:41:15.780Z,79.36
2018-09-20T09:43:44.796Z,77.41
2018-09-20T09:46:13.756Z,76.18
2018-09-20T09:48:43.086Z,76.14
2018-09-20T09:51:12.304Z,77.13
2018-09-20T09:53:41.228Z,75.35
2018-09-20T09:56:10.316Z,76.38
2018-09-20T09:58:39.263Z,76.27
2018-09-20T10:01:08.172Z,77.64
2018-09-20T10:03:37.604Z,75.19
2018-09-20T10:06:06.653Z,76.33
2018-09-20T10:08:35.665Z,76.26
2018-09-20T10:11:05.033Z,76.64
2018-09-20T10:13:33.968Z,77.69
2018-09-20T10:16:02.833Z,77.21
2018-09-20T10:18:31.845Z,77.78
2018-09-20T10:21:00.697Z,77.66
2018-09-20T10:23:29.548Z,77.29
2018-09-20T10:25:58.523Z,75.89
2018-09-20T10:28:27.822Z,77.72
2018-09-20T10:30:56.784Z,73.08
2018-09-20T10:33:25.772Z,75.16
2018-09-20T10:35:54.723Z,73.32
2018-09-20T10:38:23.868Z,72.54
2018-09-20T10:40:53.057Z,75.33
2018-09-20T10:43:21.960Z,74.99
2018-09-20T10:45:51.228Z,74.51
2018-09-20T10:48:20.483Z,75.36
2018-09-20T10:50:49.457Z,76.01
2018-09-20T10:53:18.414Z,75.48
2018-09-20T10:55:47.401Z,76.64
2018-09-20T10:58:16.369Z,75.88
2018-09-20T11:00:45.240Z,74.13
2018-09-20T11:03:14.165Z,73.91
2018-09-20T11:05:43.281Z,76.87
2018-09-20T11:08:12.268Z,76.07
2018-09-20T11:10:41.182Z,75.19
2018-09-20T11:13:10.089Z,75.29
2018-09-20T11:15:39.120Z,72.82
2018-09-20T11:18:08.078Z,72.83
2018-09-20T11:20:37.001Z,72.44
2018-09-20T11:23:06.153Z,75.19
2018-09-20T11:25:35.121Z,75.59
2018-09-20T11:28:04.038Z,73.71
2018-09-20T11:30:33.036Z,75.22
2018-09-20T11:33:02.001Z,75.69
2018-09-20T11:35:31.053Z,76.31
2018-09-20T11:38:00.411Z,76.27
2018-09-20T11:40:29.713Z,75.99
2018-09-20T11:42:58.560Z,75.97
2018-09-20T11:45:27.472Z,74.95
2018-09-20T11:47:56.287Z,73.24
2018-09-20T11:50:25.272Z,72.20
2018-09-20T11:52:54.644Z,74.84
2018-09-20T11:55:23.782Z,72.51
2018-09-20T11:57:53.084Z,74.03
2018-09-20T12:00:22.804Z,73.53
2018-09-20T12:02:53.026Z,72.99
2018-09-20T12:05:22.660Z,71.98
2018-09-20T12:07:51.610Z,73.05
2018-09-20T12:10:20.496Z,72.90
2018-09-20T12:12:49.620Z,71.65
2018-09-20T12:15:18.573Z,71.52
2018-09-20T12:17:47.542Z,71.59
2018-09-20T12:20:16.583Z,72.74
2018-09-20T12:22:45.573Z,73.56
2018-09-20T12:25:14.455Z,73.30
2018-09-20T12:27:43.422Z,73.29
2018-09-20T12:30:12.392Z,74.29
2018-09-20T12:32:41.314Z,74.53
2018-09-20T12:35:10.128Z,73.91
2018-09-20T12:37:40.041Z,72.32
2018-09-20T12:40:09.589Z,72.18
2018-09-20T12:42:38.475Z,73.46
2018-09-20T12:45:07.656Z,72.02
2018-09-20T12:47:36.648Z,73.42
2018-09-20T12:50:05.630Z,71.59
2018-09-20T12:52:34.563Z,72.38
2018-09-20T12:55:03.436Z,71.45
2018-09-20T12:57:32.528Z,71.85
2018-09-20T13:00:01.553Z,73.66
2018-09-20T13:02:30.737Z,71.36
2018-09-20T13:04:59.780Z,70.43
2018-09-20T13:07:28.914Z,69.18
2018-09-20T13:09:57.837Z,70.82
2018-09-20T13:12:26.843Z,71.84
2018-09-20T13:14:55.830Z,73.02
2018-09-20T13:17:24.683Z,72.96
2018-09-20T13:19:53.659Z,72.25
2018-09-20T13:22:22.976Z,70.88
2018-09-20T13:24:52.249Z,71.46
2018-09-20T13:27:21.152Z,70.43
2018-09-20T13:29:50.375Z,69.77
2018-09-20T13:32:19.616Z,70.72
2018-09-20T13:34:48.877Z,70.85
2018-09-20T13:37:18.143Z,72.41
2018-09-20T13:39:47.040Z,70.65
2018-09-20T13:42:15.947Z,71.59
2018-09-20T13:44:45.160Z,71.07
2018-09-20T13:47:15.323Z,68.89
2018-09-20T13:49:44.241Z,69.29
2018-09-20T13:52:13.228Z,69.71
2018-09-20T13:54:42.754Z,70.37
2018-09-20T13:57:11.623Z,69.82
2018-09-20T13:59:40.924Z,68.26
2018-09-20T14:02:09.865Z,67.60
2018-09-20T14:04:38.722Z,68.89
2018-09-20T14:07:07.700Z,68.93
2018-09-20T14:09:37.158Z,69.30
2018-09-20T14:12:06.373Z,70.20
2018-09-20T14:14:35.768Z,72.35
2018-09-20T14:17:05.064Z,72.42
2018-09-20T14:19:34.500Z,74.34
2018-09-20T14:22:03.809Z,74.81
2018-09-20T14:24:32.767Z,75.28
2018-09-20T14:27:01.993Z,75.21
2018-09-20T14:29:31.247Z,75.58
2018-09-20T14:32:00.232Z,76.80
2018-09-20T14:34:29.706Z,75.18
2018-09-20T14:36:58.959Z,72.71
2018-09-20T14:39:28.242Z,68.55
2018-09-20T14:41:57.559Z,66.96
2018-09-20T14:44:26.473Z,63.68
2018-09-20T14:46:55.453Z,63.08
2018-09-20T14:49:24.449Z,63.11
2018-09-20T14:51:53.398Z,64.95
2018-09-20T14:54:22.664Z,64.82
2018-09-20T14:56:51.693Z,66.75
2018-09-20T14:59:20.717Z,63.68
2018-09-20T15:01:49.813Z,63.31
2018-09-20T15:04:18.841Z,63.81
2018-09-20T15:06:48.302Z,65.31
2018-09-20T15:09:17.305Z,64.86
2018-09-20T15:11:46.752Z,66.24
2018-09-20T15:14:15.672Z,66.13
2018-09-20T15:16:44.730Z,66.41
2018-09-20T15:19:13.710Z,64.47
2018-09-20T15:21:42.792Z,65.58
2018-09-20T15:24:11.752Z,67.19
2018-09-20T15:26:40.625Z,67.25
2018-09-20T15:29:09.518Z,65.29
2018-09-20T15:31:38.540Z,66.90
2018-09-20T15:34:07.399Z,66.91
2018-09-20T15:36:36.382Z,68.23
2018-09-20T15:39:08.561Z,66.84
2018-09-20T15:41:37.873Z,68.60
2018-09-20T15:44:06.761Z,66.62
2018-09-20T15:46:35.832Z,69.60
2018-09-20T15:49:04.824Z,69.97
2018-09-20T15:51:34.224Z,70.14
2018-09-20T15:54:03.164Z,70.60
2018-09-20T15:56:32.109Z,70.64
2018-09-20T15:59:00.979Z,71.94
2018-09-20T16:01:30.005Z,75.14
2018-09-20T16:03:58.945Z,76.13
2018-09-20T16:06:27.931Z,77.13
2018-09-20T16:08:56.797Z,79.17
2018-09-20T16:11:25.651Z,81.15
2018-09-20T16:13:54.745Z,80.29
2018-09-20T16:16:23.724Z,80.48
2018-09-20T16:18:52.746Z,80.42
2018-09-20T16:21:21.661Z,80.70
2018-09-20T16:23:50.555Z,79.97
2018-09-20T16:26:19.680Z,80.22
2018-09-20T16:29:06.225Z,81.47
2018-09-20T16:31:51.552Z,81.04
2018-09-20T16:36:35.289Z,81.51
2018-09-20T16:39:13.836Z,81.16
2018-09-20T16:41:44.188Z,81.69
2018-09-20T16:44:13.104Z,81.87
2018-09-20T16:46:41.939Z,81.21
2018-09-20T16:49:10.921Z,80.64
2018-09-20T16:51:39.902Z,80.81
2018-09-20T16:54:08.810Z,80.48
2018-09-20T16:56:37.692Z,80.89
2018-09-20T16:59:06.592Z,82.03
2018-09-20T17:01:35.488Z,81.82
2018-09-20T17:04:04.527Z,81.16
2018-09-20T17:06:33.368Z,82.47
2018-09-20T17:09:02.217Z,80.70
2018-09-20T17:11:31.188Z,80.26
2018-09-20T17:14:00.101Z,80.11
2018-09-20T17:16:29.075Z,80.24
2018-09-20T17:18:58.011Z,80.17
2018-09-20T17:21:27.053Z,80.67
2018-09-20T17:23:55.957Z,81.32
2018-09-20T17:26:24.929Z,81.80
2018-09-20T17:28:53.768Z,82.68
2018-09-20T17:31:23.264Z,83.00
2018-09-20T17:33:52.514Z,80.93
2018-09-20T17:36:22.420Z,81.03
2018-09-20T17:38:52.276Z,82.83
2018-09-20T17:41:24.436Z,83.33
2018-09-20T17:43:58.476Z,84.89
2018-09-20T17:46:27.387Z,85.45
2018-09-20T17:48:56.299Z,86.72
2018-09-20T17:51:25.545Z,87.49
2018-09-20T17:53:54.984Z,87.22
2018-09-20T17:56:24.289Z,87.47
2018-09-20T17:58:53.716Z,87.37
2018-09-20T18:01:22.632Z,86.96
2018-09-20T18:03:51.469Z,88.83
2018-09-20T18:06:20.439Z,88.19
2018-09-20T18:08:49.385Z,88.67
2018-09-20T18:11:18.632Z,90.09
2018-09-20T18:13:47.767Z,89.07
2018-09-20T18:16:16.696Z,87.65
2018-09-20T18:18:45.729Z,86.84
2018-09-20T18:21:14.654Z,86.92
2018-09-20T18:23:43.601Z,90.68
2018-09-20T18:26:12.583Z,92.34
2018-09-20T18:29:17.866Z,91.10
2018-09-20T18:31:47.560Z,93.74
2018-09-20T18:34:16.578Z,94.63
2018-09-20T18:36:45.623Z,93.14
2018-09-20T18:39:15.123Z,95.45
2018-09-20T18:41:45.487Z,95.44
2018-09-20T18:44:14.489Z,96.76
2018-09-20T18:46:43.742Z,95.77
2018-09-20T18:49:12.664Z,97.40
2018-09-20T18:51:41.694Z,98.26
2018-09-20T18:54:10.701Z,96.99
2018-09-20T18:56:39.623Z,96.94
2018-09-20T18:59:08.577Z,96.64
2018-09-20T19:01:37.415Z,94.73
2018-09-20T19:04:06.340Z,96.84
2018-09-20T19:06:35.412Z,97.90
2018-09-20T19:09:04.876Z,96.32
2018-09-20T19:11:33.819Z,95.13
2018-09-20T19:14:02.671Z,96.34
2018-09-20T19:16:31.725Z,95.93
2018-09-20T19:19:00.616Z,93.89
2018-09-20T19:21:29.560Z,96.65
2018-09-20T19:23:58.538Z,97.64
2018-09-20T19:26:27.877Z,98.85
2018-09-20T19:28:57.169Z,98.69
2018-09-20T19:31:26.500Z,97.68
2018-09-20T19:33:56.672Z,96.48
2018-09-20T19:36:25.980Z,98.24
2018-09-20T19:38:54.904Z,98.59
2018-09-20T19:41:24.132Z,100.00
2018-09-20T19:43:53.232Z,100.00
2018-09-20T19:46:22.265Z,100.00
2018-09-20T19:48:51.184Z,100.00
2018-09-20T19:51:20.184Z,100.00
2018-09-20T19:53:49.104Z,99.62
2018-09-20T19:56:18.477Z,100.00
2018-09-20T19:58:48.172Z,99.72
2018-09-20T20:01:17.168Z,99.35
2018-09-20T20:03:46.567Z,98.36
2018-09-20T20:06:15.524Z,99.39
2018-09-20T20:08:44.838Z,100.00
2018-09-20T20:11:13.741Z,99.29
2018-09-20T20:13:42.924Z,100.00
2018-09-20T20:16:11.892Z,99.97
2018-09-20T20:18:41.024Z,98.36
2018-09-20T20:21:10.296Z,100.00
2018-09-20T20:23:39.260Z,100.00
2018-09-20T20:26:08.385Z,100.00
2018-09-20T20:28:37.823Z,100.00
2018-09-20T20:31:06.957Z,100.00
2018-09-20T20:33:36.225Z,100.00
2018-09-20T20:36:05.326Z,100.00
2018-09-20T20:38:34.301Z,100.00
2018-09-20T20:41:03.564Z,100.00
2018-09-20T20:43:32.508Z,100.00
2018-09-20T20:46:01.384Z,100.00
2018-09-20T20:48:30.252Z,100.00
2018-09-20T20:50:59.463Z,100.00
2018-09-20T20:53:28.412Z,100.00
2018-09-20T20:55:57.372Z,100.00
2018-09-20T20:58:26.298Z,100.00
2018-09-20T21:00:55.447Z,100.00
2018-09-20T21:03:24.759Z,100.00
2018-09-20T21:05:53.980Z,100.00
2018-09-20T21:08:23.305Z,100.00
2018-09-20T21:10:52.573Z,100.00
2018-09-20T21:13:21.542Z,100.00
2018-09-20T21:15:50.559Z,100.00
2018-09-20T21:18:19.542Z,100.00
2018-09-20T21:20:48.476Z,100.00
2018-09-20T21:23:17.386Z,100.00
2018-09-20T21:25:46.564Z,100.00
2018-09-20T21:28:15.492Z,100.00
2018-09-20T21:30:44.353Z,100.00
2018-09-20T21:33:13.255Z,100.00
2018-09-20T21:35:42.180Z,100.00
2018-09-20T21:38:11.016Z,100.00
2018-09-20T21:40:40.004Z,100.00
2018-09-20T21:43:08.977Z,100.00
2018-09-20T21:45:37.957Z,100.00
2018-09-20T21:48:07.051Z,100.00
2018-09-20T21:50:35.953Z,100.00
2018-09-20T21:53:04.873Z,100.00
2018-09-20T21:55:33.970Z,100.00
2018-09-20T21:58:03.441Z,100.00
2018-09-20T22:00:33.838Z,100.00
2018-09-20T22:03:03.719Z,100.00
2018-09-20T22:05:34.327Z,100.00
2018-09-20T22:08:03.700Z,100.00
2018-09-20T22:10:32.845Z,100.00
2018-09-20T22:13:01.880Z,100.00
2018-09-20T22:15:31.149Z,100.00
2018-09-20T22:18:00.183Z,100.00
2018-09-20T22:20:30.321Z,100.00
2018-09-20T22:22:59.316Z,100.00
2018-09-20T22:25:28.280Z,100.00
2018-09-20T22:27:57.250Z,100.00
2018-09-20T22:30:26.281Z,100.00
2018-09-20T22:32:55.357Z,100.00
2018-09-20T22:35:24.461Z,100.00
2018-09-20T22:37:53.312Z,100.00
2018-09-20T22:40:22.240Z,100.00
2018-09-20T22:42:51.140Z,100.00
2018-09-20T22:45:20.253Z,100.00
2018-09-20T22:47:49.194Z,100.00
2018-09-20T22:50:18.105Z,100.00
2018-09-20T22:52:46.990Z,100.00
2018-09-20T22:55:16.265Z,100.00
2018-09-20T22:57:45.298Z,100.00
2018-09-20T23:00:16.543Z,100.00
2018-09-20T23:02:45.840Z,100.00
2018-09-20T23:05:15.136Z,100.00
2018-09-20T23:07:44.525Z,100.00
2018-09-20T23:10:13.984Z,100.00
2018-09-20T23:12:42.973Z,100.00
2018-09-20T23:15:12.147Z,100.00
2018-09-20T23:17:41.074Z,100.00
2018-09-20T23:20:10.448Z,100.00
2018-09-20T23:22:39.374Z,100.00
2018-09-20T23:25:08.273Z,100.00
2018-09-20T23:27:37.258Z,100.00
2018-09-20T23:30:06.349Z,100.00
2018-09-20T23:32:35.224Z,100.00
2018-09-20T23:35:04.100Z,100.00
2018-09-20T23:37:33.540Z,100.00
2018-09-20T23:40:02.696Z,100.00
2018-09-20T23:42:32.130Z,100.00
2018-09-20T23:45:01.201Z,100.00
2018-09-20T23:47:30.395Z,100.00
2018-09-20T23:49:59.421Z,100.00
2018-09-20T23:52:28.394Z,100.00
2018-09-20T23:54:57.665Z,100.00
2018-09-20T23:57:26.661Z,100.00
2018-09-20T23:59:56.028Z,100.00
